createdAt,value
2023-05-20T00:00:08.000Z,6.83
2023-05-20T00:02:38.895Z,5.40
2023-05-20T00:05:09.666Z,4.37
2023-05-20T00:07:41.611Z,4.60
2023-05-20T00:10:09.211Z,8.07
2023-05-20T00:12:36.360Z,5.20
2023-05-20T00:15:11.378Z,5.10
2023-05-20T00:17:38.735Z,6.00
2023-05-20T00:20:16.790Z,5.47
2023-05-20T00:22:46.909Z,4.43
2023-05-20T00:25:18.233Z,6.53
2023-05-20T00:27:53.763Z,4.80
2023-05-20T00:30:26.977Z,5.37
2023-05-20T00:33:04.961Z,5.03
2023-05-20T00:35:40.756Z,7.50
2023-05-20T00:38:08.148Z,5.63
2023-05-20T00:40:46.262Z,5.00
2023-05-20T00:43:16.485Z,6.27
2023-05-20T00:45:48.279Z,5.50
2023-05-20T00:48:30.323Z,5.63
2023-05-20T00:51:02.344Z,5.50
2023-05-20T00:53:34.258Z,6.57
2023-05-20T00:56:04.565Z,8.00
2023-05-20T00:58:43.710Z,5.67
2023-05-20T01:01:12.337Z,5.00
2023-05-20T01:03:44.089Z,5.87
2023-05-20T01:06:16.533Z,7.13
2023-05-20T01:08:47.126Z,5.90
2023-05-20T01:11:30.337Z,6.83
2023-05-20T01:14:06.550Z,5.90
2023-05-20T01:16:42.072Z,6.10
2023-05-20T01:19:42.466Z,7.43
2023-05-20T01:22:13.977Z,7.73
2023-05-20T01:25:00.652Z,7.87
2023-05-20T01:27:44.488Z,6.90
2023-05-20T01:30:18.858Z,6.70
2023-05-20T01:32:55.545Z,7.60
2023-05-20T01:35:41.307Z,7.97
2023-05-20T01:38:20.592Z,5.90
2023-05-20T01:40:52.668Z,6.20
2023-05-20T01:43:53.479Z,9.60
2023-05-20T01:46:36.156Z,5.83
2023-05-20T01:49:19.399Z,8.07
2023-05-20T01:51:46.583Z,7.00
2023-05-20T01:54:20.094Z,6.30
2023-05-20T01:57:01.087Z,6.30
2023-05-20T01:59:28.379Z,6.20
2023-05-20T02:01:58.637Z,5.80
2023-05-20T02:04:26.070Z,5.97
2023-05-20T02:07:01.392Z,8.70
2023-05-20T02:09:35.526Z,6.23
2023-05-20T02:12:20.084Z,6.30
2023-05-20T02:15:00.501Z,5.50
2023-05-20T02:17:31.498Z,6.20
2023-05-20T02:20:09.476Z,6.70
2023-05-20T02:22:41.043Z,7.37
2023-05-20T02:25:13.817Z,7.53
2023-05-20T02:27:46.214Z,5.70
2023-05-20T02:30:15.439Z,6.03
2023-05-20T02:32:54.741Z,7.67
2023-05-20T02:35:26.029Z,6.50
2023-05-20T02:38:04.656Z,11.87
2023-05-20T02:40:34.613Z,8.30
2023-05-20T02:43:04.563Z,6.20
2023-05-20T02:45:34.111Z,6.43
2023-05-20T02:48:22.018Z,7.17
2023-05-20T02:50:55.114Z,6.83
2023-05-20T02:53:24.747Z,8.17
2023-05-20T02:56:11.862Z,7.47
2023-05-20T02:58:49.884Z,7.43
2023-05-20T03:01:22.088Z,7.97
2023-05-20T03:03:56.029Z,7.47
2023-05-20T03:06:30.430Z,6.23
2023-05-20T03:12:01.447Z,9.23
2023-05-20T03:14:43.607Z,6.83
2023-05-20T03:17:16.265Z,8.83
2023-05-20T03:19:53.759Z,7.20
2023-05-20T03:22:23.688Z,6.90
2023-05-20T03:24:55.288Z,7.17
2023-05-20T03:27:34.765Z,7.33
2023-05-20T03:30:05.085Z,6.53
2023-05-20T03:32:43.980Z,7.63
2023-05-20T03:35:21.560Z,7.60
2023-05-20T03:37:57.460Z,7.23
2023-05-20T03:40:27.085Z,6.83
2023-05-20T03:43:09.075Z,8.50
2023-05-20T03:45:51.979Z,7.80
2023-05-20T03:48:21.658Z,7.07
2023-05-20T03:50:52.768Z,6.97
2023-05-20T03:53:29.618Z,8.17
2023-05-20T03:55:59.412Z,7.53
2023-05-20T03:58:44.934Z,7.43
2023-05-20T04:01:17.909Z,7.57
2023-05-20T04:03:53.144Z,8.10
2023-05-20T04:06:20.475Z,7.00
2023-05-20T04:08:56.129Z,7.83
2023-05-20T04:11:34.133Z,7.83
2023-05-20T04:14:08.976Z,9.77
2023-05-20T04:16:48.212Z,7.50
2023-05-20T04:19:17.795Z,8.13
2023-05-20T04:21:52.604Z,7.57
2023-05-20T04:24:19.882Z,7.17
2023-05-20T04:29:38.964Z,7.40
2023-05-20T04:32:16.842Z,7.10
2023-05-20T04:34:48.272Z,7.67
2023-05-20T04:37:21.304Z,7.83
2023-05-20T04:39:50.996Z,7.33
2023-05-20T04:42:19.185Z,7.17
2023-05-20T04:47:33.489Z,8.77
2023-05-20T04:50:12.781Z,8.50
2023-05-20T04:52:49.782Z,8.30
2023-05-20T04:55:26.197Z,7.80
2023-05-20T04:58:06.955Z,8.63
2023-05-20T05:00:38.935Z,9.30
2023-05-20T05:03:29.123Z,7.80
2023-05-20T05:06:21.380Z,10.18
2023-05-20T05:08:58.222Z,8.27
2023-05-20T05:11:28.464Z,9.43
2023-05-20T05:16:44.939Z,7.68
2023-05-20T05:19:19.662Z,7.57
2023-05-20T05:21:54.533Z,8.00
2023-05-20T05:24:29.979Z,8.65
2023-05-20T05:26:59.749Z,8.52
2023-05-20T05:29:32.812Z,10.18
2023-05-20T05:32:10.432Z,8.50
2023-05-20T05:34:44.152Z,8.50
2023-05-20T05:37:21.856Z,8.55
2023-05-20T05:39:53.702Z,8.00
2023-05-20T05:42:26.421Z,8.65
2023-05-20T05:44:58.051Z,7.90
2023-05-20T05:47:34.022Z,8.43
2023-05-20T05:50:02.186Z,8.88
2023-05-20T05:52:34.436Z,8.75
2023-05-20T05:55:02.740Z,8.75
2023-05-20T05:57:34.790Z,8.88
2023-05-20T06:00:06.690Z,9.02
2023-05-20T06:02:38.421Z,9.55
2023-05-20T06:07:55.409Z,8.85
2023-05-20T06:10:24.635Z,9.48
2023-05-20T06:13:00.541Z,10.23
2023-05-20T06:15:37.347Z,9.35
2023-05-20T06:18:05.748Z,9.57
2023-05-20T06:20:43.496Z,11.70
2023-05-20T06:23:16.356Z,9.77
2023-05-20T06:25:53.898Z,9.55
2023-05-20T06:31:20.914Z,10.23
2023-05-20T06:34:07.856Z,9.70
2023-05-20T06:36:51.745Z,9.60
2023-05-20T06:42:08.362Z,9.73
2023-05-20T06:44:53.527Z,9.55
2023-05-20T06:47:31.046Z,8.95
2023-05-20T06:50:11.104Z,11.50
2023-05-20T06:52:58.426Z,9.73
2023-05-20T06:55:33.571Z,9.55
2023-05-20T06:58:09.672Z,9.55
2023-05-20T07:00:42.542Z,8.85
2023-05-20T07:03:19.953Z,11.07
2023-05-20T07:06:01.793Z,9.15
2023-05-20T07:08:31.513Z,7.97
2023-05-20T07:11:19.899Z,7.55
2023-05-20T07:14:06.569Z,7.70
2023-05-20T07:17:17.674Z,8.63
2023-05-20T07:20:05.288Z,6.80
2023-05-20T07:22:35.821Z,8.10
2023-05-20T07:25:12.594Z,7.85
2023-05-20T07:30:28.517Z,7.20
2023-05-20T07:33:00.732Z,7.50
2023-05-20T07:35:32.039Z,7.13
2023-05-20T07:38:09.199Z,6.30
2023-05-20T07:40:47.607Z,6.90
2023-05-20T07:43:18.964Z,7.65
2023-05-20T07:45:48.892Z,6.75
2023-05-20T07:48:25.632Z,7.45
2023-05-20T07:51:03.450Z,7.38
2023-05-20T07:53:36.543Z,7.45
2023-05-20T07:56:21.680Z,7.18
2023-05-20T07:58:58.417Z,7.15
2023-05-20T08:01:26.466Z,7.53
2023-05-20T08:03:54.096Z,8.10
2023-05-20T08:06:21.521Z,7.55
2023-05-20T08:08:48.345Z,7.60
2023-05-20T08:11:15.184Z,7.88
2023-05-20T08:13:42.214Z,8.07
2023-05-20T08:16:09.201Z,7.65
2023-05-20T08:18:39.483Z,7.43
2023-05-20T08:21:09.975Z,8.55
2023-05-20T08:23:40.213Z,7.93
2023-05-20T08:26:07.671Z,6.97
2023-05-20T08:28:34.425Z,7.47
2023-05-20T08:31:04.147Z,6.95
2023-05-20T08:33:30.862Z,7.20
2023-05-20T08:35:57.603Z,6.50
2023-05-20T08:38:24.358Z,6.93
2023-05-20T08:40:56.229Z,8.02
2023-05-20T08:43:24.486Z,6.60
2023-05-20T08:45:54.946Z,6.57
2023-05-20T08:48:25.727Z,6.75
2023-05-20T08:50:53.060Z,7.55
2023-05-20T08:53:22.048Z,6.22
2023-05-20T08:56:03.602Z,7.35
2023-05-20T08:58:31.299Z,6.57
2023-05-20T09:00:58.933Z,6.13
2023-05-20T09:03:26.069Z,6.43
2023-05-20T09:06:07.401Z,7.03
2023-05-20T09:08:34.493Z,6.80
2023-05-20T09:11:01.408Z,6.00
2023-05-20T09:13:31.503Z,6.93
2023-05-20T09:16:01.482Z,6.95
2023-05-20T09:18:29.239Z,6.47
2023-05-20T09:20:56.510Z,9.05
2023-05-20T09:23:23.390Z,6.82
2023-05-20T09:25:52.056Z,6.15
2023-05-20T09:28:25.234Z,7.88
2023-05-20T09:31:00.165Z,6.63
2023-05-20T09:33:32.016Z,10.73
2023-05-20T09:36:07.355Z,8.43
2023-05-20T09:38:38.909Z,7.90
2023-05-20T09:41:13.049Z,6.53
2023-05-20T09:43:40.357Z,6.80
2023-05-20T09:46:08.335Z,9.55
2023-05-20T09:48:38.510Z,7.03
2023-05-20T09:51:06.893Z,6.80
2023-05-20T09:53:33.665Z,6.93
2023-05-20T09:56:00.529Z,7.97
2023-05-20T09:58:28.961Z,7.55
2023-05-20T10:00:55.908Z,8.38
2023-05-20T10:03:24.760Z,7.50
2023-05-20T10:06:08.266Z,8.48
2023-05-20T10:08:40.075Z,8.07
2023-05-20T10:11:34.413Z,8.02
2023-05-20T10:14:22.462Z,7.88
2023-05-20T10:17:08.878Z,7.72
2023-05-20T10:19:36.182Z,8.95
2023-05-20T10:22:09.631Z,7.93
2023-05-20T10:24:40.918Z,8.07
2023-05-20T10:27:15.424Z,7.30
2023-05-20T10:32:29.132Z,7.40
2023-05-20T10:35:05.092Z,8.07
2023-05-20T10:37:43.955Z,8.13
2023-05-20T10:40:18.179Z,7.60
2023-05-20T10:42:45.148Z,7.78
2023-05-20T10:45:12.538Z,6.97
2023-05-20T10:47:59.096Z,8.50
2023-05-20T10:50:36.770Z,7.00
2023-05-20T10:53:06.945Z,6.95
2023-05-20T10:55:40.412Z,7.35
2023-05-20T10:58:07.852Z,7.22
2023-05-20T11:00:39.086Z,7.65
2023-05-20T11:03:07.342Z,8.60
2023-05-20T11:05:34.518Z,7.10
2023-05-20T11:08:04.459Z,7.60
2023-05-20T11:10:37.759Z,7.07
2023-05-20T11:13:05.371Z,7.43
2023-05-20T11:15:33.507Z,7.35
2023-05-20T11:18:02.731Z,8.63
2023-05-20T11:20:30.962Z,7.65
2023-05-20T11:22:57.685Z,7.60
2023-05-20T11:25:24.379Z,6.90
2023-05-20T11:27:51.939Z,7.50
2023-05-20T11:30:20.438Z,7.55
2023-05-20T11:33:00.472Z,7.75
2023-05-20T11:35:32.221Z,8.30
2023-05-20T11:38:03.389Z,8.43
2023-05-20T11:40:38.888Z,7.35
2023-05-20T11:43:14.671Z,8.07
2023-05-20T11:45:43.223Z,9.48
2023-05-20T11:48:11.975Z,8.00
2023-05-20T11:50:40.995Z,8.65
2023-05-20T11:53:09.933Z,9.02
2023-05-20T11:55:55.826Z,7.57
2023-05-20T11:58:24.243Z,7.72
2023-05-20T12:00:56.733Z,7.32
2023-05-20T12:03:26.308Z,7.35
2023-05-20T12:05:53.407Z,7.53
2023-05-20T12:08:20.101Z,7.60
2023-05-20T12:10:46.890Z,7.45
2023-05-20T12:13:13.787Z,7.25
2023-05-20T12:15:41.053Z,7.53
2023-05-20T12:18:08.000Z,6.20
2023-05-20T12:20:35.111Z,9.18
2023-05-20T12:23:02.394Z,7.60
2023-05-20T12:25:29.704Z,8.13
2023-05-20T12:27:56.581Z,7.15
2023-05-20T12:30:23.971Z,7.50
2023-05-20T12:32:52.035Z,8.63
2023-05-20T12:35:35.746Z,7.45
2023-05-20T12:38:02.514Z,9.90
2023-05-20T12:40:29.238Z,7.20
2023-05-20T12:42:55.938Z,9.20
2023-05-20T12:45:22.693Z,7.50
2023-05-20T12:47:49.517Z,7.63
2023-05-20T12:50:16.317Z,7.35
2023-05-20T12:52:43.129Z,7.38
2023-05-20T12:55:13.797Z,6.85
2023-05-20T12:57:44.504Z,7.60
2023-05-20T13:00:12.622Z,7.15
2023-05-20T13:02:40.493Z,8.00
2023-05-20T13:05:07.641Z,9.38
2023-05-20T13:07:34.510Z,7.22
2023-05-20T13:10:01.609Z,8.40
2023-05-20T13:12:28.362Z,9.00
2023-05-20T13:14:55.083Z,8.93
2023-05-20T13:17:21.783Z,7.20
2023-05-20T13:19:48.866Z,7.63
2023-05-20T13:22:15.617Z,7.30
2023-05-20T13:24:42.317Z,7.07
2023-05-20T13:27:09.158Z,7.38
2023-05-20T13:29:35.848Z,9.48
2023-05-20T13:32:03.029Z,7.35
2023-05-20T13:34:30.451Z,7.32
2023-05-20T13:36:57.335Z,7.20
2023-05-20T13:39:24.098Z,8.75
2023-05-20T13:41:50.934Z,7.28
2023-05-20T13:44:17.672Z,7.35
2023-05-20T13:46:44.580Z,7.32
2023-05-20T13:49:11.385Z,7.53
2023-05-20T13:51:38.189Z,6.95
2023-05-20T13:54:06.374Z,8.93
2023-05-20T13:56:33.133Z,6.30
2023-05-20T13:58:59.834Z,7.22
2023-05-20T14:01:27.758Z,7.90
2023-05-20T14:03:54.587Z,7.03
2023-05-20T14:06:21.358Z,7.82
2023-05-20T14:08:48.054Z,8.52
2023-05-20T14:11:14.792Z,8.25
2023-05-20T14:13:41.470Z,6.68
2023-05-20T14:16:08.263Z,6.88
2023-05-20T14:18:35.053Z,6.50
2023-05-20T14:21:01.807Z,7.82
2023-05-20T14:23:28.505Z,9.63
2023-05-20T14:25:55.187Z,7.25
2023-05-20T14:28:21.878Z,6.85
2023-05-20T14:30:48.548Z,7.30
2023-05-20T14:33:15.606Z,6.97
2023-05-20T14:35:42.329Z,7.43
2023-05-20T14:38:08.999Z,7.78
2023-05-20T14:40:36.092Z,7.65
2023-05-20T14:43:03.015Z,7.55
2023-05-20T14:45:29.778Z,7.68
2023-05-20T14:47:56.506Z,7.15
2023-05-20T14:50:23.296Z,7.28
2023-05-20T14:52:50.008Z,7.57
2023-05-20T14:55:16.783Z,6.72
2023-05-20T14:57:43.591Z,7.45
2023-05-20T15:00:11.524Z,8.23
2023-05-20T15:02:38.408Z,10.15
2023-05-20T15:05:05.527Z,10.45
2023-05-20T15:07:32.221Z,7.88
2023-05-20T15:09:58.909Z,7.78
2023-05-20T15:12:25.732Z,6.78
2023-05-20T15:14:52.452Z,8.70
2023-05-20T15:17:19.140Z,7.07
2023-05-20T15:19:45.895Z,7.88
2023-05-20T15:22:12.634Z,6.85
2023-05-20T15:24:39.425Z,6.90
2023-05-20T15:27:06.503Z,7.50
2023-05-20T15:29:33.216Z,6.32
2023-05-20T15:32:00.261Z,7.47
2023-05-20T15:34:26.953Z,8.57
2023-05-20T15:36:53.810Z,7.32
2023-05-20T15:39:20.556Z,7.40
2023-05-20T15:41:48.966Z,6.80
2023-05-20T15:44:15.949Z,7.15
2023-05-20T15:46:43.773Z,6.90
2023-05-20T15:49:12.422Z,6.70
2023-05-20T15:51:39.919Z,6.60
2023-05-20T15:54:08.043Z,7.15
2023-05-20T15:56:34.797Z,7.25
2023-05-20T15:59:01.621Z,7.97
2023-05-20T16:01:28.552Z,7.57
2023-05-20T16:03:57.982Z,7.28
2023-05-20T16:06:25.043Z,7.38
2023-05-20T16:08:52.136Z,8.57
2023-05-20T16:11:18.814Z,8.25
2023-05-20T16:13:45.577Z,8.15
2023-05-20T16:16:13.716Z,7.70
2023-05-20T16:18:40.662Z,7.45
2023-05-20T16:21:07.946Z,7.82
2023-05-20T16:23:34.925Z,7.55
2023-05-20T16:26:01.953Z,7.75
2023-05-20T16:28:28.804Z,8.95
2023-05-20T16:30:56.656Z,8.57
2023-05-20T16:33:23.329Z,8.93
2023-05-20T16:35:50.042Z,9.55
2023-05-20T16:38:16.761Z,7.85
2023-05-20T16:40:43.488Z,7.72
2023-05-20T16:43:10.180Z,7.72
2023-05-20T16:45:36.892Z,7.75
2023-05-20T16:48:03.754Z,7.70
2023-05-20T16:50:30.447Z,9.38
2023-05-20T16:52:58.969Z,10.43
2023-05-20T16:55:25.654Z,11.82
2023-05-20T16:57:52.474Z,10.35
2023-05-20T17:00:19.229Z,11.30
2023-05-20T17:02:46.527Z,11.48
2023-05-20T17:05:15.483Z,11.13
2023-05-20T17:07:43.516Z,11.23
2023-05-20T17:10:11.037Z,11.85
2023-05-20T17:12:37.776Z,11.98
2023-05-20T17:15:06.097Z,11.52
2023-05-20T17:17:32.885Z,10.98
2023-05-20T17:19:59.648Z,12.07
2023-05-20T17:22:26.437Z,11.43
2023-05-20T17:24:53.116Z,10.88
2023-05-20T17:27:19.847Z,11.00
2023-05-20T17:29:47.797Z,14.00
2023-05-20T17:32:14.498Z,11.73
2023-05-20T17:34:41.353Z,11.27
2023-05-20T17:37:08.041Z,14.35
2023-05-20T17:39:34.735Z,12.30
2023-05-20T17:42:01.439Z,13.65
2023-05-20T17:44:28.130Z,13.95
2023-05-20T17:46:54.798Z,12.85
2023-05-20T17:49:22.113Z,14.35
2023-05-20T17:51:48.790Z,14.68
2023-05-20T17:54:15.477Z,14.15
2023-05-20T17:56:44.442Z,13.90
2023-05-20T17:59:11.579Z,14.38
2023-05-20T18:01:38.904Z,14.30
2023-05-20T18:04:06.408Z,13.77
2023-05-20T18:06:34.748Z,14.63
2023-05-20T18:09:01.954Z,14.73
2023-05-20T18:11:28.741Z,14.95
2023-05-20T18:13:58.662Z,15.50
2023-05-20T18:16:29.652Z,15.82
2023-05-20T18:18:57.288Z,15.00
2023-05-20T18:21:25.076Z,15.43
2023-05-20T18:23:52.407Z,14.48
2023-05-20T18:26:25.067Z,14.93
2023-05-20T18:28:51.777Z,15.38
2023-05-20T18:31:18.680Z,14.68
2023-05-20T18:33:45.421Z,15.23
2023-05-20T18:36:12.151Z,15.30
2023-05-20T18:38:40.631Z,15.80
2023-05-20T18:41:08.288Z,16.05
2023-05-20T18:43:35.036Z,14.60
2023-05-20T18:46:01.791Z,15.35
2023-05-20T18:48:28.694Z,14.55
2023-05-20T18:50:56.243Z,15.48
2023-05-20T18:53:23.755Z,15.20
2023-05-20T18:55:50.627Z,16.20
2023-05-20T18:58:17.416Z,15.32
2023-05-20T19:00:44.331Z,14.77
2023-05-20T19:03:11.719Z,14.80
2023-05-20T19:05:39.062Z,16.27
2023-05-20T19:08:06.376Z,16.10
2023-05-20T19:10:33.388Z,14.52
2023-05-20T19:13:00.470Z,14.77
2023-05-20T19:15:27.244Z,15.25
2023-05-20T19:17:54.029Z,15.27
2023-05-20T19:20:21.887Z,14.57
2023-05-20T19:22:48.572Z,15.35
2023-05-20T19:25:15.359Z,16.23
2023-05-20T19:27:42.060Z,15.98
2023-05-20T19:30:10.941Z,16.30
2023-05-20T19:32:38.756Z,16.08
2023-05-20T19:35:06.340Z,14.60
2023-05-20T19:37:33.298Z,16.35
2023-05-20T19:40:00.060Z,15.82
2023-05-20T19:42:27.022Z,16.00
2023-05-20T19:44:54.179Z,16.50
2023-05-20T19:47:21.668Z,16.48
2023-05-20T19:49:48.483Z,15.43
2023-05-20T19:52:15.627Z,15.73
2023-05-20T19:54:42.855Z,16.55
2023-05-20T19:57:10.135Z,16.58
2023-05-20T19:59:38.115Z,15.02
2023-05-20T20:02:06.146Z,16.40
2023-05-20T20:04:33.211Z,16.08
2023-05-20T20:07:00.161Z,16.25
2023-05-20T20:09:27.307Z,15.77
2023-05-20T20:11:54.299Z,16.58
2023-05-20T20:14:21.553Z,16.50
2023-05-20T20:16:49.557Z,18.63
2023-05-20T20:19:18.809Z,20.27
2023-05-20T20:21:46.417Z,18.63
2023-05-20T20:24:13.364Z,19.30
2023-05-20T20:26:40.644Z,17.85
2023-05-20T20:29:08.116Z,18.27
2023-05-20T20:31:34.960Z,18.30
2023-05-20T20:34:01.810Z,18.83
2023-05-20T20:36:32.060Z,18.15
2023-05-20T20:39:02.554Z,17.45
2023-05-20T20:41:29.586Z,16.83
2023-05-20T20:43:57.483Z,17.40
2023-05-20T20:46:24.298Z,16.98
2023-05-20T20:48:51.228Z,15.80
2023-05-20T20:51:17.931Z,18.73
2023-05-20T20:53:46.970Z,17.75
2023-05-20T20:56:13.748Z,17.00
2023-05-20T20:58:40.627Z,17.10
2023-05-20T21:01:07.734Z,15.40
2023-05-20T21:03:34.509Z,16.25
2023-05-20T21:06:01.943Z,17.05
2023-05-20T21:08:30.341Z,21.35
2023-05-20T21:10:59.176Z,17.50
2023-05-20T21:13:27.434Z,16.85
2023-05-20T21:15:54.427Z,17.70
2023-05-20T21:18:24.357Z,18.30
2023-05-20T21:20:52.610Z,18.10
2023-05-20T21:23:23.182Z,18.98
2023-05-20T21:25:50.135Z,19.20
2023-05-20T21:28:17.044Z,18.27
2023-05-20T21:30:45.003Z,16.85
2023-05-20T21:33:11.889Z,19.23
2023-05-20T21:35:38.855Z,18.13
2023-05-20T21:38:05.680Z,16.88
2023-05-20T21:40:32.490Z,20.08
2023-05-20T21:42:59.174Z,20.23
2023-05-20T21:45:25.927Z,19.88
2023-05-20T21:47:52.753Z,20.15
2023-05-20T21:50:19.634Z,18.92
2023-05-20T21:52:46.416Z,18.58
2023-05-20T21:55:13.209Z,18.17
2023-05-20T21:57:39.973Z,17.70
2023-05-20T22:00:15.081Z,18.25
2023-05-20T22:02:41.965Z,16.63
2023-05-20T22:05:09.283Z,18.17
2023-05-20T22:07:36.086Z,17.77
2023-05-20T22:10:03.586Z,17.88
2023-05-20T22:12:30.816Z,21.00
2023-05-20T22:14:57.509Z,17.15
2023-05-20T22:17:24.805Z,17.40
2023-05-20T22:19:51.803Z,17.98
2023-05-20T22:22:18.589Z,18.33
2023-05-20T22:24:45.753Z,17.75
2023-05-20T22:27:12.757Z,17.23
2023-05-20T22:29:39.432Z,17.83
2023-05-20T22:32:06.441Z,18.10
2023-05-20T22:34:33.182Z,18.27
2023-05-20T22:37:00.213Z,19.65
2023-05-20T22:39:26.893Z,18.98
2023-05-20T22:41:53.615Z,18.35
2023-05-20T22:44:20.587Z,17.25
2023-05-20T22:46:47.290Z,18.38
2023-05-20T22:49:14.406Z,18.40
2023-05-20T22:51:41.640Z,18.77
2023-05-20T22:54:09.489Z,18.50
2023-05-20T22:56:36.219Z,19.17
2023-05-20T22:59:03.198Z,19.23
2023-05-20T23:01:29.944Z,18.08
2023-05-20T23:03:56.706Z,16.65
2023-05-20T23:06:23.425Z,19.00
2023-05-20T23:08:50.130Z,19.13
2023-05-20T23:11:16.812Z,18.65
2023-05-20T23:13:43.591Z,20.80
2023-05-20T23:16:10.596Z,18.23
2023-05-20T23:18:37.319Z,19.63
2023-05-20T23:21:04.247Z,18.05
2023-05-20T23:23:32.219Z,18.75
2023-05-20T23:25:59.767Z,18.33
2023-05-20T23:28:26.617Z,18.13
2023-05-20T23:30:53.491Z,18.45
2023-05-20T23:33:24.855Z,17.70
2023-05-20T23:35:52.511Z,17.83
2023-05-20T23:38:19.901Z,18.58
2023-05-20T23:40:46.587Z,18.02
2023-05-20T23:43:13.475Z,17.52
2023-05-20T23:45:40.138Z,17.58
2023-05-20T23:48:09.896Z,17.08
2023-05-20T23:50:36.628Z,16.52
2023-05-20T23:53:03.662Z,17.08
2023-05-20T23:55:31.824Z,16.92
2023-05-20T23:57:58.702Z,16.52
